createdAt,value
2018-10-17T00:00:13.596Z,17.27
2018-10-17T00:02:43.155Z,19.67
2018-10-17T00:05:12.505Z,19.00
2018-10-17T00:07:41.600Z,23.05
2018-10-17T00:10:11.338Z,24.00
2018-10-17T00:12:41.275Z,26.82
2018-10-17T00:15:10.626Z,21.10
2018-10-17T00:17:39.835Z,23.97
2018-10-17T00:20:09.969Z,24.73
2018-10-17T00:22:39.172Z,21.67
2018-10-17T00:25:08.618Z,24.97
2018-10-17T00:27:37.870Z,23.70
2018-10-17T00:30:10.467Z,23.63
2018-10-17T00:32:39.775Z,19.57
2018-10-17T00:35:09.893Z,21.37
2018-10-17T00:37:39.167Z,25.63
2018-10-17T00:40:08.430Z,27.77
2018-10-17T00:42:37.928Z,25.70
2018-10-17T00:45:07.722Z,25.87
2018-10-17T00:47:36.932Z,21.77
2018-10-17T00:50:06.177Z,24.80
2018-10-17T00:52:35.355Z,26.40
2018-10-17T00:55:04.702Z,23.53
2018-10-17T00:57:33.890Z,28.20
2018-10-17T01:00:03.261Z,24.00
2018-10-17T01:02:32.523Z,23.10
2018-10-17T01:05:02.163Z,20.87
2018-10-17T01:07:31.318Z,27.03
2018-10-17T01:10:00.512Z,23.00
2018-10-17T01:12:29.714Z,33.03
2018-10-17T01:14:58.883Z,26.70
2018-10-17T01:17:28.064Z,24.60
2018-10-17T01:19:57.301Z,23.87
2018-10-17T01:22:26.518Z,23.40
2018-10-17T01:24:55.698Z,28.20
2018-10-17T01:27:24.916Z,26.13
2018-10-17T01:29:54.104Z,25.43
2018-10-17T01:32:23.333Z,23.40
2018-10-17T01:34:52.606Z,28.33
2018-10-17T01:37:21.796Z,27.87
2018-10-17T01:39:50.963Z,28.80
2018-10-17T01:42:20.159Z,24.53
2018-10-17T01:44:49.373Z,32.10
2018-10-17T01:47:18.602Z,28.17
2018-10-17T01:49:47.786Z,29.67
2018-10-17T01:52:17.479Z,25.70
2018-10-17T01:54:46.689Z,27.53
2018-10-17T01:57:16.486Z,27.00
2018-10-17T01:59:45.695Z,26.37
2018-10-17T02:02:15.493Z,27.62
2018-10-17T02:04:44.764Z,25.70
2018-10-17T02:07:14.782Z,33.83
2018-10-17T02:09:43.888Z,25.57
2018-10-17T02:12:14.627Z,26.30
2018-10-17T02:14:43.785Z,26.33
2018-10-17T02:17:13.715Z,24.53
2018-10-17T02:19:42.957Z,33.60
2018-10-17T02:22:12.689Z,26.67
2018-10-17T02:24:41.856Z,25.33
2018-10-17T02:27:11.113Z,33.83
2018-10-17T02:29:40.308Z,31.80
2018-10-17T02:32:09.597Z,32.30
2018-10-17T02:34:43.992Z,29.13
2018-10-17T02:37:13.224Z,28.07
2018-10-17T02:39:42.427Z,33.63
2018-10-17T02:42:11.685Z,29.50
2018-10-17T02:44:40.901Z,32.43
2018-10-17T02:47:10.228Z,32.13
2018-10-17T02:49:39.425Z,31.20
2018-10-17T02:52:08.671Z,30.60
2018-10-17T02:54:37.900Z,33.17
2018-10-17T02:57:07.131Z,31.37
2018-10-17T02:59:36.329Z,31.37
2018-10-17T03:02:05.567Z,33.73
2018-10-17T03:04:34.740Z,32.40
2018-10-17T03:07:04.033Z,32.73
2018-10-17T03:09:33.255Z,35.70
2018-10-17T03:12:02.498Z,36.47
2018-10-17T03:14:31.694Z,34.77
2018-10-17T03:17:03.790Z,36.20
2018-10-17T03:19:32.920Z,34.93
2018-10-17T03:22:02.156Z,32.87
2018-10-17T03:24:31.341Z,32.03
2018-10-17T03:27:00.532Z,33.25
2018-10-17T03:29:29.735Z,34.70
2018-10-17T03:31:58.912Z,31.20
2018-10-17T03:34:28.068Z,38.07
2018-10-17T03:36:57.275Z,31.90
2018-10-17T03:39:26.441Z,35.70
2018-10-17T03:41:55.663Z,37.63
2018-10-17T03:44:24.895Z,35.98
2018-10-17T03:46:54.089Z,37.27
2018-10-17T03:49:24.068Z,39.88
2018-10-17T03:51:53.238Z,36.93
2018-10-17T03:54:22.463Z,39.03
2018-10-17T03:56:51.619Z,42.23
2018-10-17T03:59:21.361Z,40.15
2018-10-17T04:01:50.395Z,36.80
2018-10-17T04:04:19.607Z,34.33
2018-10-17T04:06:48.779Z,41.63
2018-10-17T04:09:18.063Z,34.77
2018-10-17T04:11:47.236Z,39.13
2018-10-17T04:14:16.631Z,38.67
2018-10-17T04:16:45.802Z,37.43
2018-10-17T04:19:15.080Z,43.80
2018-10-17T04:21:44.208Z,38.78
2018-10-17T04:24:13.925Z,42.40
2018-10-17T04:26:43.104Z,41.10
2018-10-17T04:29:12.393Z,49.38
2018-10-17T04:31:41.482Z,48.43
2018-10-17T04:34:10.699Z,42.23
2018-10-17T04:36:39.937Z,41.70
2018-10-17T04:39:10.368Z,43.97
2018-10-17T04:41:39.612Z,36.23
2018-10-17T04:44:09.845Z,41.10
2018-10-17T04:46:42.115Z,42.60
2018-10-17T04:49:11.645Z,49.20
2018-10-17T04:51:40.871Z,46.33
2018-10-17T04:54:10.066Z,41.27
2018-10-17T04:56:39.252Z,43.43
2018-10-17T04:59:08.498Z,40.87
2018-10-17T05:01:37.675Z,38.83
2018-10-17T05:04:06.962Z,35.03
2018-10-17T05:06:36.193Z,35.40
2018-10-17T05:09:08.767Z,39.20
2018-10-17T05:11:38.222Z,40.70
2018-10-17T05:14:07.659Z,37.83
2018-10-17T05:16:37.164Z,44.60
2018-10-17T05:19:06.435Z,39.40
2018-10-17T05:21:35.548Z,41.40
2018-10-17T05:24:04.806Z,39.97
2018-10-17T05:26:33.999Z,33.70
2018-10-17T05:29:03.311Z,35.70
2018-10-17T05:31:33.086Z,35.20
2018-10-17T05:34:02.430Z,41.20
2018-10-17T05:36:31.700Z,41.23
2018-10-17T05:39:00.927Z,38.75
2018-10-17T05:41:30.136Z,44.03
2018-10-17T05:43:59.385Z,37.53
2018-10-17T05:46:28.595Z,41.60
2018-10-17T05:48:57.874Z,38.53
2018-10-17T05:51:27.052Z,40.63
2018-10-17T05:53:56.211Z,37.17
2018-10-17T05:56:25.407Z,39.13
2018-10-17T05:58:54.639Z,38.13
2018-10-17T06:01:23.965Z,37.47
2018-10-17T06:03:53.106Z,47.33
2018-10-17T06:06:22.397Z,34.37
2018-10-17T06:08:51.558Z,47.37
2018-10-17T06:11:20.805Z,39.03
2018-10-17T06:13:50.041Z,37.50
2018-10-17T06:16:19.281Z,36.13
2018-10-17T06:18:48.460Z,34.50
2018-10-17T06:21:17.661Z,31.00
2018-10-17T06:23:46.818Z,39.27
2018-10-17T06:26:16.968Z,36.67
2018-10-17T06:28:46.215Z,38.30
2018-10-17T06:31:15.528Z,32.80
2018-10-17T06:33:44.665Z,34.00
2018-10-17T06:36:13.848Z,34.27
2018-10-17T06:38:43.036Z,34.20
2018-10-17T06:41:12.489Z,37.13
2018-10-17T06:43:41.574Z,31.57
2018-10-17T06:46:11.174Z,34.70
2018-10-17T06:48:40.371Z,31.73
2018-10-17T06:51:10.015Z,31.57
2018-10-17T06:53:39.179Z,38.27
2018-10-17T06:56:08.854Z,35.17
2018-10-17T06:58:38.063Z,31.67
2018-10-17T07:01:07.495Z,31.30
2018-10-17T07:03:36.678Z,33.50
2018-10-17T07:06:06.059Z,36.13
2018-10-17T07:08:35.272Z,30.77
2018-10-17T07:11:04.652Z,29.03
2018-10-17T07:13:33.832Z,29.43
2018-10-17T07:16:03.060Z,34.97
2018-10-17T07:18:32.266Z,37.13
2018-10-17T07:21:01.489Z,32.60
2018-10-17T07:23:30.689Z,37.10
2018-10-17T07:25:59.854Z,35.20
2018-10-17T07:28:29.091Z,30.40
2018-10-17T07:30:59.300Z,30.10
2018-10-17T07:33:28.447Z,27.97
2018-10-17T07:35:57.742Z,30.93
2018-10-17T07:38:26.843Z,32.60
2018-10-17T07:40:56.361Z,35.47
2018-10-17T07:43:25.519Z,29.37
2018-10-17T07:45:54.825Z,36.57
2018-10-17T07:48:24.017Z,29.60
2018-10-17T07:50:53.254Z,33.20
2018-10-17T07:53:22.497Z,39.93
2018-10-17T07:55:51.718Z,38.83
2018-10-17T07:58:20.890Z,31.33
2018-10-17T08:00:50.184Z,28.40
2018-10-17T08:03:19.391Z,41.60
2018-10-17T08:05:48.647Z,37.27
2018-10-17T08:08:17.828Z,29.50
2018-10-17T08:10:47.052Z,34.53
2018-10-17T08:13:16.214Z,35.63
2018-10-17T08:15:45.434Z,31.80
2018-10-17T08:18:14.835Z,28.33
2018-10-17T08:20:43.943Z,30.10
2018-10-17T08:23:13.385Z,28.70
2018-10-17T08:25:42.573Z,28.00
2018-10-17T08:28:12.045Z,29.17
2018-10-17T08:30:41.279Z,32.43
2018-10-17T08:33:11.001Z,35.33
2018-10-17T08:35:40.324Z,26.53
2018-10-17T08:38:10.100Z,28.00
2018-10-17T08:40:39.267Z,34.70
2018-10-17T08:43:08.927Z,27.30
2018-10-17T08:45:38.183Z,32.07
2018-10-17T08:48:07.644Z,30.93
2018-10-17T08:50:36.917Z,30.60
2018-10-17T08:53:06.118Z,26.77
2018-10-17T08:55:35.315Z,32.27
2018-10-17T08:58:04.636Z,41.13
2018-10-17T09:00:33.879Z,32.90
2018-10-17T09:03:03.115Z,35.70
2018-10-17T09:05:32.259Z,30.97
2018-10-17T09:08:01.569Z,34.37
2018-10-17T09:10:30.757Z,28.53
2018-10-17T09:12:59.983Z,28.37
2018-10-17T09:15:29.188Z,29.37
2018-10-17T09:17:58.438Z,33.80
2018-10-17T09:20:27.777Z,34.50
2018-10-17T09:22:56.851Z,39.70
2018-10-17T09:25:26.074Z,28.40
2018-10-17T09:27:55.212Z,34.67
2018-10-17T09:30:24.617Z,37.78
2018-10-17T09:32:53.648Z,43.17
2018-10-17T09:35:22.854Z,33.60
2018-10-17T09:37:52.046Z,34.37
2018-10-17T09:40:21.259Z,39.77
2018-10-17T09:42:50.454Z,33.70
2018-10-17T09:45:19.744Z,33.43
2018-10-17T09:47:49.087Z,31.00
2018-10-17T09:50:18.267Z,30.60
2018-10-17T09:52:47.535Z,31.07
2018-10-17T09:55:16.801Z,33.57
2018-10-17T09:57:46.049Z,26.07
2018-10-17T10:00:23.960Z,25.30
2018-10-17T10:02:54.582Z,29.50
2018-10-17T10:05:25.012Z,31.97
2018-10-17T10:07:55.024Z,30.53
2018-10-17T10:10:25.143Z,25.90
2018-10-17T10:12:54.334Z,30.40
2018-10-17T10:15:23.531Z,31.20
2018-10-17T10:17:52.727Z,28.53
2018-10-17T10:20:21.932Z,27.80
2018-10-17T10:22:51.162Z,25.60
2018-10-17T10:25:20.381Z,24.17
2018-10-17T10:27:49.573Z,38.63
2018-10-17T10:30:18.764Z,27.10
2018-10-17T10:32:47.916Z,28.10
2018-10-17T10:35:17.096Z,22.87
2018-10-17T10:37:46.323Z,27.73
2018-10-17T10:40:15.637Z,23.30
2018-10-17T10:42:44.738Z,25.53
2018-10-17T10:45:14.252Z,27.63
2018-10-17T10:47:43.473Z,26.47
2018-10-17T10:50:13.597Z,24.73
2018-10-17T10:52:42.821Z,24.93
2018-10-17T10:55:12.546Z,22.20
2018-10-17T10:57:41.767Z,31.67
2018-10-17T11:00:12.020Z,22.20
2018-10-17T11:02:41.209Z,27.70
2018-10-17T11:05:12.016Z,25.67
2018-10-17T11:07:41.177Z,23.30
2018-10-17T11:10:12.154Z,24.50
2018-10-17T11:12:41.382Z,19.33
2018-10-17T11:15:12.279Z,24.23
2018-10-17T11:17:41.533Z,21.53
2018-10-17T11:20:12.353Z,18.63
2018-10-17T11:22:41.566Z,23.83
2018-10-17T11:25:11.564Z,25.53
2018-10-17T11:27:40.778Z,24.73
2018-10-17T11:30:11.450Z,19.60
2018-10-17T11:32:40.952Z,24.57
2018-10-17T11:35:11.958Z,19.60
2018-10-17T11:37:41.177Z,21.03
2018-10-17T11:40:11.113Z,22.97
2018-10-17T11:42:40.310Z,23.23
2018-10-17T11:45:10.875Z,23.10
2018-10-17T11:47:40.082Z,18.30
2018-10-17T11:50:10.477Z,17.73
2018-10-17T11:52:40.124Z,21.40
2018-10-17T11:55:10.966Z,22.50
2018-10-17T11:57:40.197Z,20.30
2018-10-17T12:00:12.248Z,17.70
2018-10-17T12:02:41.508Z,17.40
2018-10-17T12:05:14.251Z,24.45
2018-10-17T12:07:43.555Z,20.10
2018-10-17T12:10:13.337Z,23.30
2018-10-17T12:12:42.550Z,18.67
2018-10-17T12:15:13.905Z,17.83
2018-10-17T12:17:43.288Z,28.40
2018-10-17T12:20:14.085Z,19.07
2018-10-17T12:22:44.290Z,17.40
2018-10-17T12:25:14.052Z,16.90
2018-10-17T12:27:43.360Z,19.05
2018-10-17T12:30:14.686Z,17.93
2018-10-17T12:32:43.871Z,14.70
2018-10-17T12:35:13.454Z,15.68
2018-10-17T12:37:42.646Z,15.93
2018-10-17T12:40:13.324Z,18.23
2018-10-17T12:42:42.465Z,16.40
2018-10-17T12:45:13.371Z,28.20
2018-10-17T12:47:42.583Z,19.30
2018-10-17T12:50:12.486Z,12.43
2018-10-17T12:52:41.833Z,16.63
2018-10-17T12:55:11.710Z,17.77
2018-10-17T12:57:40.872Z,14.40
2018-10-17T13:00:11.448Z,17.70
2018-10-17T13:02:40.931Z,13.23
2018-10-17T13:05:11.698Z,13.70
2018-10-17T13:07:40.801Z,20.77
2018-10-17T13:10:11.883Z,12.20
2018-10-17T13:12:41.311Z,14.43
2018-10-17T13:15:12.830Z,19.00
2018-10-17T13:17:42.967Z,17.27
2018-10-17T13:20:12.632Z,11.03
2018-10-17T13:22:41.841Z,13.73
2018-10-17T13:25:13.823Z,17.47
2018-10-17T13:27:43.014Z,11.20
2018-10-17T13:30:12.694Z,12.93
2018-10-17T13:32:41.891Z,9.43
2018-10-17T13:35:11.913Z,14.73
2018-10-17T13:37:41.091Z,18.77
2018-10-17T13:40:11.432Z,12.05
2018-10-17T13:42:40.657Z,13.63
2018-10-17T13:45:10.620Z,13.67
2018-10-17T13:47:39.798Z,13.90
2018-10-17T13:50:10.202Z,14.40
2018-10-17T13:52:39.450Z,15.57
2018-10-17T13:55:09.887Z,11.87
2018-10-17T13:57:39.232Z,12.93
2018-10-17T14:00:12.181Z,12.07
2018-10-17T14:02:43.330Z,18.57
2018-10-17T14:05:13.234Z,15.77
2018-10-17T14:07:42.470Z,12.43
2018-10-17T14:10:12.872Z,12.60
2018-10-17T14:12:42.131Z,22.50
2018-10-17T14:15:12.600Z,16.80
2018-10-17T14:17:41.756Z,14.73
2018-10-17T14:20:10.979Z,13.22
2018-10-17T14:22:40.218Z,10.80
2018-10-17T14:25:10.579Z,16.17
2018-10-17T14:27:39.775Z,25.90
2018-10-17T14:30:10.745Z,10.10
2018-10-17T14:32:38.902Z,11.90
2018-10-17T14:35:10.886Z,9.60
2018-10-17T14:37:40.090Z,16.73
2018-10-17T14:40:09.795Z,8.10
2018-10-17T14:42:38.993Z,9.20
2018-10-17T14:45:10.201Z,12.93
2018-10-17T14:47:39.852Z,8.67
2018-10-17T14:50:09.639Z,9.40
2018-10-17T14:52:38.835Z,13.33
2018-10-17T14:55:09.059Z,15.20
2018-10-17T14:57:38.345Z,9.17
2018-10-17T15:00:11.839Z,8.00
2018-10-17T15:02:41.126Z,11.87
2018-10-17T15:05:11.860Z,9.30
2018-10-17T15:07:41.963Z,15.20
2018-10-17T15:10:12.257Z,10.63
2018-10-17T15:12:41.402Z,10.03
2018-10-17T15:15:12.947Z,8.00
2018-10-17T15:17:42.098Z,11.00
2018-10-17T15:20:11.912Z,8.97
2018-10-17T15:22:41.128Z,14.50
2018-10-17T15:25:10.666Z,9.53
2018-10-17T15:27:39.865Z,11.03
2018-10-17T15:30:09.603Z,9.33
2018-10-17T15:32:38.841Z,10.70
2018-10-17T15:35:09.647Z,12.23
2018-10-17T15:37:38.855Z,12.70
2018-10-17T15:40:08.369Z,14.20
2018-10-17T15:42:37.523Z,11.47
2018-10-17T15:45:06.843Z,15.00
2018-10-17T15:47:36.022Z,11.27
2018-10-17T15:50:05.420Z,11.47
2018-10-17T15:52:34.585Z,10.37
2018-10-17T15:55:04.413Z,11.30
2018-10-17T15:57:33.627Z,10.90
2018-10-17T16:00:02.920Z,9.87
2018-10-17T16:02:32.086Z,9.50
2018-10-17T16:05:01.403Z,11.97
2018-10-17T16:07:30.630Z,12.67
2018-10-17T16:09:59.803Z,9.33
2018-10-17T16:12:28.960Z,11.27
2018-10-17T16:14:58.222Z,10.30
2018-10-17T16:17:27.380Z,11.97
2018-10-17T16:19:56.689Z,14.65
2018-10-17T16:22:26.183Z,14.80
2018-10-17T16:24:55.378Z,16.40
2018-10-17T16:27:24.640Z,18.13
2018-10-17T16:29:54.102Z,13.47
2018-10-17T16:32:23.368Z,16.07
2018-10-17T16:34:52.654Z,15.28
2018-10-17T16:37:21.894Z,19.70
2018-10-17T16:39:51.140Z,16.33
2018-10-17T16:42:20.464Z,20.93
2018-10-17T16:44:49.677Z,19.37
2018-10-17T16:47:19.054Z,22.33
2018-10-17T16:49:48.377Z,17.00
2018-10-17T16:52:17.678Z,19.27
2018-10-17T16:54:47.025Z,17.90
2018-10-17T16:57:16.305Z,19.10
2018-10-17T16:59:47.229Z,16.03
2018-10-17T17:02:17.005Z,18.45
2018-10-17T17:04:46.190Z,17.43
2018-10-17T17:07:15.791Z,24.90
2018-10-17T17:09:45.946Z,17.25
2018-10-17T17:12:16.176Z,15.63
2018-10-17T17:14:45.728Z,16.30
2018-10-17T17:17:14.897Z,17.47
2018-10-17T17:19:44.080Z,17.50
2018-10-17T17:22:14.773Z,17.23
2018-10-17T17:24:43.959Z,17.67
2018-10-17T17:27:13.356Z,15.43
2018-10-17T17:29:42.484Z,16.40
2018-10-17T17:32:11.850Z,17.73
2018-10-17T17:34:41.062Z,15.43
2018-10-17T17:37:10.263Z,12.50
2018-10-17T17:39:39.543Z,13.90
2018-10-17T17:42:08.819Z,15.30
2018-10-17T17:45:03.379Z,14.70
2018-10-17T17:47:32.576Z,14.87
2018-10-17T17:50:02.300Z,14.90
2018-10-17T17:52:31.632Z,22.13
2018-10-17T17:55:01.464Z,15.10
2018-10-17T17:57:30.651Z,26.27
2018-10-17T17:59:59.869Z,28.17
2018-10-17T18:02:29.185Z,22.13
2018-10-17T18:04:58.394Z,20.10
2018-10-17T18:07:28.071Z,19.10
2018-10-17T18:09:57.284Z,23.47
2018-10-17T18:12:26.508Z,15.80
2018-10-17T18:14:55.719Z,16.33
2018-10-17T18:17:24.914Z,20.97
2018-10-17T18:19:54.142Z,20.20
2018-10-17T18:22:23.379Z,17.53
2018-10-17T18:24:52.646Z,22.40
2018-10-17T18:27:21.914Z,18.40
2018-10-17T18:29:51.125Z,18.17
2018-10-17T18:32:20.377Z,19.67
2018-10-17T18:34:49.604Z,23.85
2018-10-17T18:37:19.025Z,19.57
2018-10-17T18:39:48.467Z,19.27
2018-10-17T18:42:17.809Z,17.23
2018-10-17T18:44:47.213Z,19.85
2018-10-17T18:47:17.716Z,21.70
2018-10-17T18:49:47.622Z,23.13
2018-10-17T18:52:17.689Z,18.40
2018-10-17T18:54:48.243Z,17.17
2018-10-17T18:57:18.337Z,22.53
2018-10-17T18:59:47.742Z,17.30
2018-10-17T19:02:17.813Z,21.83
2018-10-17T19:04:47.226Z,16.27
2018-10-17T19:07:17.326Z,18.57
2018-10-17T19:09:46.758Z,20.23
2018-10-17T19:12:16.068Z,14.87
2018-10-17T19:14:45.456Z,19.33
2018-10-17T19:17:15.065Z,20.20
2018-10-17T19:19:44.324Z,19.87
2018-10-17T19:22:13.635Z,20.37
2018-10-17T19:24:43.009Z,26.57
2018-10-17T19:27:12.446Z,22.03
2018-10-17T19:29:41.775Z,19.97
2018-10-17T19:32:11.009Z,26.00
2018-10-17T19:34:40.336Z,20.10
2018-10-17T19:37:09.607Z,24.17
2018-10-17T19:39:39.038Z,24.23
2018-10-17T19:42:08.385Z,24.90
2018-10-17T19:44:37.619Z,24.50
2018-10-17T19:47:06.902Z,19.33
2018-10-17T19:49:36.170Z,20.97
2018-10-17T19:52:05.436Z,17.47
2018-10-17T19:54:34.657Z,19.07
2018-10-17T19:57:04.908Z,21.40
2018-10-17T19:59:34.103Z,26.03
2018-10-17T20:02:03.350Z,20.70
2018-10-17T20:04:32.524Z,22.70
2018-10-17T20:07:01.773Z,24.63
2018-10-17T20:09:30.935Z,27.20
2018-10-17T20:12:00.256Z,29.30
2018-10-17T20:14:29.469Z,24.07
2018-10-17T20:16:58.754Z,17.47
2018-10-17T20:19:28.024Z,20.47
2018-10-17T20:21:57.335Z,21.73
2018-10-17T20:24:26.658Z,20.20
2018-10-17T20:26:55.979Z,25.83
2018-10-17T20:29:25.161Z,20.27
2018-10-17T20:31:54.438Z,22.77
2018-10-17T20:34:23.637Z,26.60
2018-10-17T20:36:52.902Z,21.03
2018-10-17T20:39:22.151Z,22.70
2018-10-17T20:41:51.292Z,28.27
2018-10-17T20:44:20.472Z,24.13
2018-10-17T20:46:49.714Z,28.63
2018-10-17T20:49:19.009Z,25.12
2018-10-17T20:51:48.635Z,22.82
2018-10-17T20:54:17.811Z,21.93
2018-10-17T20:56:47.195Z,29.23
2018-10-17T20:59:16.433Z,27.10
2018-10-17T21:01:46.591Z,25.17
2018-10-17T21:04:16.304Z,30.50
2018-10-17T21:06:45.617Z,20.17
2018-10-17T21:09:15.735Z,34.20
2018-10-17T21:11:44.940Z,23.12
2018-10-17T21:14:14.684Z,32.70
2018-10-17T21:16:43.795Z,19.27
2018-10-17T21:19:13.014Z,22.70
2018-10-17T21:21:42.238Z,23.50
2018-10-17T21:24:11.459Z,25.07
2018-10-17T21:26:40.770Z,28.67
2018-10-17T21:29:09.954Z,21.40
2018-10-17T21:31:39.258Z,19.53
2018-10-17T21:34:08.448Z,22.20
2018-10-17T21:36:37.765Z,23.90
2018-10-17T21:39:10.813Z,20.57
2018-10-17T21:41:40.055Z,22.80
2018-10-17T21:44:10.259Z,21.53
2018-10-17T21:46:39.762Z,22.50
2018-10-17T21:49:09.716Z,25.05
2018-10-17T21:51:39.450Z,27.37
2018-10-17T21:54:08.687Z,26.53
2018-10-17T21:56:38.030Z,26.67
2018-10-17T21:59:07.590Z,25.30
2018-10-17T22:01:36.876Z,24.90
2018-10-17T22:04:06.117Z,28.03
2018-10-17T22:06:35.348Z,25.63
2018-10-17T22:09:06.642Z,27.93
2018-10-17T22:11:35.838Z,21.93
2018-10-17T22:14:05.338Z,27.80
2018-10-17T22:16:39.559Z,21.50
2018-10-17T22:19:08.896Z,27.77
2018-10-17T22:21:37.940Z,28.37
2018-10-17T22:39:14.552Z,25.53
2018-10-17T22:41:44.808Z,32.87
2018-10-17T22:44:14.437Z,34.47
2018-10-17T22:46:44.443Z,23.35
2018-10-17T22:49:13.848Z,25.93
2018-10-17T22:51:43.015Z,24.60
2018-10-17T22:54:12.439Z,32.90
2018-10-17T22:56:41.604Z,31.33
2018-10-17T22:59:10.807Z,29.73
2018-10-17T23:01:40.115Z,26.80
2018-10-17T23:04:09.599Z,29.57
2018-10-17T23:06:38.966Z,30.80
2018-10-17T23:09:10.104Z,30.27
2018-10-17T23:11:39.400Z,31.43
2018-10-17T23:14:09.051Z,34.67
2018-10-17T23:16:38.841Z,28.13
2018-10-17T23:19:08.563Z,26.77
2018-10-17T23:21:37.848Z,29.23
2018-10-17T23:24:07.090Z,30.40
2018-10-17T23:26:36.292Z,24.87
2018-10-17T23:29:05.491Z,31.20
2018-10-17T23:31:34.719Z,26.35
2018-10-17T23:34:03.931Z,28.87
2018-10-17T23:36:33.130Z,35.87
2018-10-17T23:39:02.327Z,32.20
2018-10-17T23:41:31.552Z,29.93
2018-10-17T23:44:00.774Z,28.17
2018-10-17T23:46:30.000Z,30.27
2018-10-17T23:48:59.231Z,31.33
2018-10-17T23:51:28.459Z,28.77
2018-10-17T23:53:57.678Z,29.60
2018-10-17T23:56:26.886Z,35.57
2018-10-17T23:58:56.060Z,32.40
